EKSN/CNL METAR and TAF weather

Enter ICAO airport designator
Station Type Date Time Source
EKSN METAR 2021/07/30 12:50 UTC NOAA

EKSN 301250Z 26022KT 9999 FEW015 BKN019 19/16 Q0998


Station Type Date Time Source
EKSN Decoded METAR 2021/07/30 12:50 UTC NOAA

Sindal Flyveplads, Denmark (EKSN) 57-30N 010-13E 28M
Jul 30, 2021 - 08:50 AM EDT / 2021.07.30 1250 UTC
Wind: from the W (260 degrees) at 25 MPH (22 KT):0
Visibility: greater than 7 mile(s):0
Sky conditions: mostly cloudy
Temperature: 66 F (19 C)
Dew Point: 60 F (16 C)
Relative Humidity: 82%
Pressure (altimeter): 29.47 in. Hg (0998 hPa)
ob: EKSN 301250Z 26022KT 9999 FEW015 BKN019 19/16 Q0998
cycle: 13

Station Type Date Time Source
EKSN TAF UTC NOAA

Error!

Example: see airport list